This is the latest recevied weather packets stored in our database for station/object KE5VBO-1. If no packets are shown the sender has not sent any weather packets the latest 1 day(s).
| Time | Temp. | Humidity | Pressure | Rain* | Wind** | Luminosity | Snow |
|---|---|---|---|---|---|---|---|
| 1836274707 | 24.44° C | 1% | 1014.2 hPa | 0 mm | 0 m/s | - | - |
| 1778056224 | 13.33° C | 1% | 1008.5 hPa | 0 mm | 0 m/s | - | - |
| 1778055344 | 13.33° C | 1% | 1008.6 hPa | 0 mm | 0 m/s | - | - |
| 1778054474 | 13.33° C | 1% | 1008.1 hPa | 0 mm | 0 m/s | - | - |
| 1778053550 | 13.89° C | 1% | 1008 hPa | 0 mm | 0.45 m/s, 114° | - | - |
| 1778052604 | 13.89° C | 1% | 1007.9 hPa | 0 mm | 0 m/s | - | - |
| 1778051742 | 13.89° C | 1% | 1008.1 hPa | 0 mm | 0 m/s | - | - |
| 1778050805 | 13.89° C | 1% | 1008.2 hPa | 0 mm | 0 m/s | - | - |
| 1778049938 | 13.89° C | 1% | 1008.2 hPa | 0 mm | 0 m/s | - | - |
| 1778049080 | 13.89° C | 1% | 1008.4 hPa | 0 mm | 0 m/s | - | - |
| 1778048143 | 13.89° C | 1% | 1008.3 hPa | 0 mm | 0 m/s | - | - |
| 1778047202 | 14.44° C | 1% | 1008.2 hPa | 0 mm | 0 m/s | - | - |
| 1778046339 | 14.44° C | 1% | 1008.2 hPa | 0 mm | 0 m/s | - | - |
| 1778045401 | 15° C | 1% | 1008.2 hPa | 0 mm | 0 m/s | - | - |
| 1778044541 | 15° C | 1% | 1008.2 hPa | 0 mm | 0 m/s | - | - |
| 1778043675 | 15° C | 1% | 1008.1 hPa | 0 mm | 0 m/s | - | - |
| 1778042725 | 15.56° C | 1% | 1008.1 hPa | 0 mm | 0 m/s | - | - |
| 1778041859 | 15.56° C | 1% | 1007.8 hPa | 0 mm | 0 m/s | - | - |
| 1778040935 | 16.11° C | 1% | 1007.9 hPa | 0 mm | 0 m/s | - | - |
| 1778040054 | 16.11° C | 1% | 1007.6 hPa | 0 mm | 0 m/s | - | - |
| 1778039126 | 16.67° C | 1% | 1007.4 hPa | 0 mm | 0 m/s | - | - |
| 1778038254 | 17.22° C | 1% | 1007.3 hPa | 0 mm | 0.45 m/s, 258° | - | - |
| 1778037317 | 17.22° C | 1% | 1007.2 hPa | 0 mm | 0 m/s | - | - |
| 1778036452 | 17.78° C | 1% | 1006.9 hPa | 0 mm | 0.45 m/s, 359° | - | - |
| 1778035529 | 18.33° C | 1% | 1006.4 hPa | 0 mm | 0.45 m/s, 258° | - | - |
* Rain latest hour (hover to see other rain measurements)
** Current wind speed in m/s (hover to see current wind gust speed)